sensor_id;sensor_type;location;lat;lon;timestamp;temperature;humidity
25128;DHT22;13107;51.304;6.866;2022-08-21T00:03:26;14.60;99.90
25128;DHT22;13107;51.304;6.866;2022-08-21T00:07:28;14.60;99.90
25128;DHT22;13107;51.304;6.866;2022-08-21T00:11:30;14.70;99.90
25128;DHT22;13107;51.304;6.866;2022-08-21T00:15:34;14.70;99.90
25128;DHT22;13107;51.304;6.866;2022-08-21T00:19:36;14.80;99.90
25128;DHT22;13107;51.304;6.866;2022-08-21T00:23:38;14.80;99.90
25128;DHT22;13107;51.304;6.866;2022-08-21T00:27:40;14.80;99.90
25128;DHT22;13107;51.304;6.866;2022-08-21T00:31:44;14.70;99.90
25128;DHT22;13107;51.304;6.866;2022-08-21T00:35:46;14.70;99.90
25128;DHT22;13107;51.304;6.866;2022-08-21T00:39:48;14.60;99.90
25128;DHT22;13107;51.304;6.866;2022-08-21T00:43:50;14.60;99.90
25128;DHT22;13107;51.304;6.866;2022-08-21T00:47:53;14.50;99.90
25128;DHT22;13107;51.304;6.866;2022-08-21T00:51:59;14.40;99.90
25128;DHT22;13107;51.304;6.866;2022-08-21T00:56:03;14.30;99.90
25128;DHT22;13107;51.304;6.866;2022-08-21T01:00:09;14.20;99.90
25128;DHT22;13107;51.304;6.866;2022-08-21T01:04:13;14.20;99.90
25128;DHT22;13107;51.304;6.866;2022-08-21T01:08:16;14.20;99.90
25128;DHT22;13107;51.304;6.866;2022-08-21T01:12:19;14.00;99.90
25128;DHT22;13107;51.304;6.866;2022-08-21T01:16:21;14.00;99.90
25128;DHT22;13107;51.304;6.866;2022-08-21T01:20:24;13.90;99.90
25128;DHT22;13107;51.304;6.866;2022-08-21T01:24:33;13.90;99.90
25128;DHT22;13107;51.304;6.866;2022-08-21T01:28:39;13.90;99.90
25128;DHT22;13107;51.304;6.866;2022-08-21T01:32:42;13.90;99.90
25128;DHT22;13107;51.304;6.866;2022-08-21T01:36:46;13.80;99.90
25128;DHT22;13107;51.304;6.866;2022-08-21T01:40:48;13.70;99.90
25128;DHT22;13107;51.304;6.866;2022-08-21T01:44:50;13.70;99.90
25128;DHT22;13107;51.304;6.866;2022-08-21T01:48:56;13.60;99.90
25128;DHT22;13107;51.304;6.866;2022-08-21T01:52:58;13.60;99.90
25128;DHT22;13107;51.304;6.866;2022-08-21T01:57:00;13.50;99.90
25128;DHT22;13107;51.304;6.866;2022-08-21T02:01:03;13.40;99.90
25128;DHT22;13107;51.304;6.866;2022-08-21T02:05:06;13.30;99.90
25128;DHT22;13107;51.304;6.866;2022-08-21T02:09:10;13.20;99.90
25128;DHT22;13107;51.304;6.866;2022-08-21T02:13:12;13.20;99.90
25128;DHT22;13107;51.304;6.866;2022-08-21T02:17:14;13.20;99.90
25128;DHT22;13107;51.304;6.866;2022-08-21T02:21:16;13.10;99.90
25128;DHT22;13107;51.304;6.866;2022-08-21T02:25:19;13.10;99.90
25128;DHT22;13107;51.304;6.866;2022-08-21T02:29:21;13.00;99.90
25128;DHT22;13107;51.304;6.866;2022-08-21T02:33:24;13.00;99.90
25128;DHT22;13107;51.304;6.866;2022-08-21T02:37:26;13.00;99.90
25128;DHT22;13107;51.304;6.866;2022-08-21T02:41:28;12.90;99.90
25128;DHT22;13107;51.304;6.866;2022-08-21T02:45:31;12.90;99.90
25128;DHT22;13107;51.304;6.866;2022-08-21T02:49:32;12.80;99.90
25128;DHT22;13107;51.304;6.866;2022-08-21T02:53:35;12.80;99.90
25128;DHT22;13107;51.304;6.866;2022-08-21T02:57:37;12.70;99.90
25128;DHT22;13107;51.304;6.866;2022-08-21T03:01:38;12.80;99.90
25128;DHT22;13107;51.304;6.866;2022-08-21T03:05:41;12.70;99.90
25128;DHT22;13107;51.304;6.866;2022-08-21T03:09:43;12.60;99.90
25128;DHT22;13107;51.304;6.866;2022-08-21T03:13:56;12.60;99.90
25128;DHT22;13107;51.304;6.866;2022-08-21T03:17:58;12.60;99.90
25128;DHT22;13107;51.304;6.866;2022-08-21T03:22:00;12.60;99.90
25128;DHT22;13107;51.304;6.866;2022-08-21T03:26:02;12.50;99.90
25128;DHT22;13107;51.304;6.866;2022-08-21T03:30:06;12.50;99.90
25128;DHT22;13107;51.304;6.866;2022-08-21T03:34:08;12.50;99.90
25128;DHT22;13107;51.304;6.866;2022-08-21T03:38:10;12.40;99.90
25128;DHT22;13107;51.304;6.866;2022-08-21T03:42:13;12.40;99.90
25128;DHT22;13107;51.304;6.866;2022-08-21T03:46:15;12.50;99.90
25128;DHT22;13107;51.304;6.866;2022-08-21T03:50:17;12.40;99.90
25128;DHT22;13107;51.304;6.866;2022-08-21T03:54:19;12.30;99.90
25128;DHT22;13107;51.304;6.866;2022-08-21T03:58:23;12.30;99.90
25128;DHT22;13107;51.304;6.866;2022-08-21T04:02:25;12.20;99.90
25128;DHT22;13107;51.304;6.866;2022-08-21T04:06:27;12.20;99.90
25128;DHT22;13107;51.304;6.866;2022-08-21T04:10:31;12.20;99.90
25128;DHT22;13107;51.304;6.866;2022-08-21T04:14:34;12.10;99.90
25128;DHT22;13107;51.304;6.866;2022-08-21T04:18:35;12.20;99.90
25128;DHT22;13107;51.304;6.866;2022-08-21T04:22:37;12.20;99.90
25128;DHT22;13107;51.304;6.866;2022-08-21T04:26:39;12.10;99.90
25128;DHT22;13107;51.304;6.866;2022-08-21T04:30:41;12.10;99.90
25128;DHT22;13107;51.304;6.866;2022-08-21T04:34:43;12.10;99.90
25128;DHT22;13107;51.304;6.866;2022-08-21T04:38:45;12.20;99.90
25128;DHT22;13107;51.304;6.866;2022-08-21T04:42:49;12.20;99.90
25128;DHT22;13107;51.304;6.866;2022-08-21T04:46:51;12.30;99.90
25128;DHT22;13107;51.304;6.866;2022-08-21T04:50:57;12.20;99.90
25128;DHT22;13107;51.304;6.866;2022-08-21T04:55:00;12.30;99.90
25128;DHT22;13107;51.304;6.866;2022-08-21T04:59:05;12.30;99.90
25128;DHT22;13107;51.304;6.866;2022-08-21T05:03:09;12.30;99.90
25128;DHT22;13107;51.304;6.866;2022-08-21T05:07:16;12.40;99.90
25128;DHT22;13107;51.304;6.866;2022-08-21T05:11:40;12.40;99.90
25128;DHT22;13107;51.304;6.866;2022-08-21T05:15:42;12.50;99.90
25128;DHT22;13107;51.304;6.866;2022-08-21T05:19:44;12.60;99.90
25128;DHT22;13107;51.304;6.866;2022-08-21T05:23:45;12.70;99.90
25128;DHT22;13107;51.304;6.866;2022-08-21T05:27:47;12.80;99.90
25128;DHT22;13107;51.304;6.866;2022-08-21T05:31:52;12.90;99.90
25128;DHT22;13107;51.304;6.866;2022-08-21T05:35:55;13.00;99.90
25128;DHT22;13107;51.304;6.866;2022-08-21T05:39:57;13.20;99.90
25128;DHT22;13107;51.304;6.866;2022-08-21T05:44:20;13.30;99.90
25128;DHT22;13107;51.304;6.866;2022-08-21T05:48:24;13.50;99.90
25128;DHT22;13107;51.304;6.866;2022-08-21T05:52:26;13.70;99.90
25128;DHT22;13107;51.304;6.866;2022-08-21T05:56:27;13.80;99.90
25128;DHT22;13107;51.304;6.866;2022-08-21T06:00:29;14.00;99.90
25128;DHT22;13107;51.304;6.866;2022-08-21T06:04:35;14.00;99.90
25128;DHT22;13107;51.304;6.866;2022-08-21T06:08:37;14.20;99.90
25128;DHT22;13107;51.304;6.866;2022-08-21T06:12:39;14.30;99.90
25128;DHT22;13107;51.304;6.866;2022-08-21T06:16:43;14.50;99.90
25128;DHT22;13107;51.304;6.866;2022-08-21T06:20:44;14.60;99.90
25128;DHT22;13107;51.304;6.866;2022-08-21T06:24:46;14.70;99.90
25128;DHT22;13107;51.304;6.866;2022-08-21T06:28:49;15.10;99.90
25128;DHT22;13107;51.304;6.866;2022-08-21T06:32:50;15.20;99.90
25128;DHT22;13107;51.304;6.866;2022-08-21T06:36:52;15.20;99.90
25128;DHT22;13107;51.304;6.866;2022-08-21T06:40:57;15.30;99.90
25128;DHT22;13107;51.304;6.866;2022-08-21T06:44:59;15.30;99.90
25128;DHT22;13107;51.304;6.866;2022-08-21T06:49:01;15.60;99.90
25128;DHT22;13107;51.304;6.866;2022-08-21T06:53:14;15.70;99.90
25128;DHT22;13107;51.304;6.866;2022-08-21T06:57:16;15.80;99.90
25128;DHT22;13107;51.304;6.866;2022-08-21T07:01:25;15.80;99.90
25128;DHT22;13107;51.304;6.866;2022-08-21T07:05:29;15.90;99.90
25128;DHT22;13107;51.304;6.866;2022-08-21T07:09:31;16.00;99.90
25128;DHT22;13107;51.304;6.866;2022-08-21T07:13:33;16.10;99.90
25128;DHT22;13107;51.304;6.866;2022-08-21T07:17:35;16.40;99.90
25128;DHT22;13107;51.304;6.866;2022-08-21T07:21:36;16.50;99.90
25128;DHT22;13107;51.304;6.866;2022-08-21T07:25:38;16.80;99.90
25128;DHT22;13107;51.304;6.866;2022-08-21T07:29:40;16.80;99.90
25128;DHT22;13107;51.304;6.866;2022-08-21T07:33:43;16.80;99.90
25128;DHT22;13107;51.304;6.866;2022-08-21T07:37:52;17.10;99.90
25128;DHT22;13107;51.304;6.866;2022-08-21T07:41:54;17.40;99.90
25128;DHT22;13107;51.304;6.866;2022-08-21T07:45:56;17.50;99.90
25128;DHT22;13107;51.304;6.866;2022-08-21T07:49:58;17.70;99.90
25128;DHT22;13107;51.304;6.866;2022-08-21T07:54:00;17.70;99.90
25128;DHT22;13107;51.304;6.866;2022-08-21T07:58:02;17.70;99.90
25128;DHT22;13107;51.304;6.866;2022-08-21T08:02:04;18.00;99.90
25128;DHT22;13107;51.304;6.866;2022-08-21T08:06:06;18.10;99.90
25128;DHT22;13107;51.304;6.866;2022-08-21T08:10:10;18.40;99.90
25128;DHT22;13107;51.304;6.866;2022-08-21T08:14:12;18.60;99.90
25128;DHT22;13107;51.304;6.866;2022-08-21T08:18:14;18.50;99.90
25128;DHT22;13107;51.304;6.866;2022-08-21T08:22:18;18.60;99.90
25128;DHT22;13107;51.304;6.866;2022-08-21T08:26:25;18.70;99.90
25128;DHT22;13107;51.304;6.866;2022-08-21T08:30:26;18.90;99.90
25128;DHT22;13107;51.304;6.866;2022-08-21T08:34:35;19.00;99.90
25128;DHT22;13107;51.304;6.866;2022-08-21T08:38:37;19.10;99.90
25128;DHT22;13107;51.304;6.866;2022-08-21T08:42:40;19.20;99.90
25128;DHT22;13107;51.304;6.866;2022-08-21T08:46:47;19.60;99.90
25128;DHT22;13107;51.304;6.866;2022-08-21T08:50:56;20.10;99.90
25128;DHT22;13107;51.304;6.866;2022-08-21T08:55:07;20.80;99.90
25128;DHT22;13107;51.304;6.866;2022-08-21T08:59:38;21.50;99.90
25128;DHT22;13107;51.304;6.866;2022-08-21T09:03:41;21.80;99.90
25128;DHT22;13107;51.304;6.866;2022-08-21T09:12:39;22.20;99.90
25128;DHT22;13107;51.304;6.866;2022-08-21T09:16:47;22.60;99.90
25128;DHT22;13107;51.304;6.866;2022-08-21T09:21:02;23.30;99.90
25128;DHT22;13107;51.304;6.866;2022-08-21T09:25:20;23.10;99.90
25128;DHT22;13107;51.304;6.866;2022-08-21T09:29:27;23.20;99.90
25128;DHT22;13107;51.304;6.866;2022-08-21T09:33:31;23.80;99.90
25128;DHT22;13107;51.304;6.866;2022-08-21T09:42:03;24.50;99.90
25128;DHT22;13107;51.304;6.866;2022-08-21T09:50:37;25.60;99.90
25128;DHT22;13107;51.304;6.866;2022-08-21T09:54:40;26.20;99.90
25128;DHT22;13107;51.304;6.866;2022-08-21T09:58:46;26.30;99.90
25128;DHT22;13107;51.304;6.866;2022-08-21T10:02:48;26.80;99.90
25128;DHT22;13107;51.304;6.866;2022-08-21T10:06:50;26.90;99.00
25128;DHT22;13107;51.304;6.866;2022-08-21T10:11:02;26.40;98.70
25128;DHT22;13107;51.304;6.866;2022-08-21T10:19:42;26.00;98.40
25128;DHT22;13107;51.304;6.866;2022-08-21T10:28:39;27.20;96.90
25128;DHT22;13107;51.304;6.866;2022-08-21T10:42:06;27.10;96.90
25128;DHT22;13107;51.304;6.866;2022-08-21T10:50:38;27.00;97.50
25128;DHT22;13107;51.304;6.866;2022-08-21T10:55:04;26.50;96.70
25128;DHT22;13107;51.304;6.866;2022-08-21T10:59:24;26.40;96.50
25128;DHT22;13107;51.304;6.866;2022-08-21T11:03:33;25.80;96.60
25128;DHT22;13107;51.304;6.866;2022-08-21T11:08:05;25.70;98.00
25128;DHT22;13107;51.304;6.866;2022-08-21T11:12:26;25.20;97.90
25128;DHT22;13107;51.304;6.866;2022-08-21T11:20:51;25.00;98.90
25128;DHT22;13107;51.304;6.866;2022-08-21T11:29:29;25.00;98.20
25128;DHT22;13107;51.304;6.866;2022-08-21T11:38:34;25.20;99.70
25128;DHT22;13107;51.304;6.866;2022-08-21T11:42:59;25.50;98.30
25128;DHT22;13107;51.304;6.866;2022-08-21T11:51:27;25.80;97.10
25128;DHT22;13107;51.304;6.866;2022-08-21T11:55:50;26.10;96.20
25128;DHT22;13107;51.304;6.866;2022-08-21T12:00:01;26.30;96.50
25128;DHT22;13107;51.304;6.866;2022-08-21T12:04:10;26.20;96.60
25128;DHT22;13107;51.304;6.866;2022-08-21T12:08:41;25.80;95.70
25128;DHT22;13107;51.304;6.866;2022-08-21T12:12:44;25.70;97.20
25128;DHT22;13107;51.304;6.866;2022-08-21T12:16:48;25.60;96.60
25128;DHT22;13107;51.304;6.866;2022-08-21T12:25:22;25.30;97.90
25128;DHT22;13107;51.304;6.866;2022-08-21T12:29:32;25.30;97.30
25128;DHT22;13107;51.304;6.866;2022-08-21T12:33:38;25.20;97.40
25128;DHT22;13107;51.304;6.866;2022-08-21T12:37:44;25.50;96.30
25128;DHT22;13107;51.304;6.866;2022-08-21T12:41:51;25.80;96.60
25128;DHT22;13107;51.304;6.866;2022-08-21T12:45:56;25.70;94.70
25128;DHT22;13107;51.304;6.866;2022-08-21T12:50:05;25.80;94.90
25128;DHT22;13107;51.304;6.866;2022-08-21T12:54:07;25.90;94.80
25128;DHT22;13107;51.304;6.866;2022-08-21T12:58:27;26.20;93.20
25128;DHT22;13107;51.304;6.866;2022-08-21T13:02:31;25.80;94.60
25128;DHT22;13107;51.304;6.866;2022-08-21T13:06:40;25.50;95.10
25128;DHT22;13107;51.304;6.866;2022-08-21T13:10:43;25.50;96.30
25128;DHT22;13107;51.304;6.866;2022-08-21T13:14:48;25.90;94.70
25128;DHT22;13107;51.304;6.866;2022-08-21T13:19:01;25.90;95.00
25128;DHT22;13107;51.304;6.866;2022-08-21T13:23:07;25.70;93.80
25128;DHT22;13107;51.304;6.866;2022-08-21T13:27:21;25.80;95.10
25128;DHT22;13107;51.304;6.866;2022-08-21T13:31:26;25.70;94.40
25128;DHT22;13107;51.304;6.866;2022-08-21T13:35:46;25.90;94.90
25128;DHT22;13107;51.304;6.866;2022-08-21T13:39:54;25.90;92.80
25128;DHT22;13107;51.304;6.866;2022-08-21T13:48:27;26.00;94.60
25128;DHT22;13107;51.304;6.866;2022-08-21T13:52:30;25.90;93.10
25128;DHT22;13107;51.304;6.866;2022-08-21T13:56:44;25.50;93.60
25128;DHT22;13107;51.304;6.866;2022-08-21T14:00:49;25.30;95.40
25128;DHT22;13107;51.304;6.866;2022-08-21T14:05:00;25.70;95.80
25128;DHT22;13107;51.304;6.866;2022-08-21T14:09:12;26.10;93.40
25128;DHT22;13107;51.304;6.866;2022-08-21T14:13:27;26.00;92.20
25128;DHT22;13107;51.304;6.866;2022-08-21T14:17:32;26.00;93.00
25128;DHT22;13107;51.304;6.866;2022-08-21T14:21:38;26.30;95.10
25128;DHT22;13107;51.304;6.866;2022-08-21T14:25:43;26.90;93.80
25128;DHT22;13107;51.304;6.866;2022-08-21T14:29:45;27.40;92.20
25128;DHT22;13107;51.304;6.866;2022-08-21T14:33:48;27.70;91.00
25128;DHT22;13107;51.304;6.866;2022-08-21T14:37:50;28.00;90.00
25128;DHT22;13107;51.304;6.866;2022-08-21T14:41:52;28.20;90.30
25128;DHT22;13107;51.304;6.866;2022-08-21T14:45:55;28.20;88.10
25128;DHT22;13107;51.304;6.866;2022-08-21T14:49:57;28.00;90.00
25128;DHT22;13107;51.304;6.866;2022-08-21T14:54:00;27.70;87.70
25128;DHT22;13107;51.304;6.866;2022-08-21T14:58:01;27.30;82.60
25128;DHT22;13107;51.304;6.866;2022-08-21T15:02:07;26.60;87.00
25128;DHT22;13107;51.304;6.866;2022-08-21T15:06:10;26.20;88.70
25128;DHT22;13107;51.304;6.866;2022-08-21T15:10:12;25.70;88.90
25128;DHT22;13107;51.304;6.866;2022-08-21T15:14:20;25.40;90.20
25128;DHT22;13107;51.304;6.866;2022-08-21T15:18:24;25.10;90.10
25128;DHT22;13107;51.304;6.866;2022-08-21T15:22:27;24.90;90.80
25128;DHT22;13107;51.304;6.866;2022-08-21T15:26:29;24.80;91.40
25128;DHT22;13107;51.304;6.866;2022-08-21T15:30:31;24.90;90.90
25128;DHT22;13107;51.304;6.866;2022-08-21T15:34:33;24.90;92.60
25128;DHT22;13107;51.304;6.866;2022-08-21T15:38:35;25.10;91.10
25128;DHT22;13107;51.304;6.866;2022-08-21T15:42:39;25.10;92.50
25128;DHT22;13107;51.304;6.866;2022-08-21T15:46:41;25.10;93.40
25128;DHT22;13107;51.304;6.866;2022-08-21T15:50:46;25.10;92.90
25128;DHT22;13107;51.304;6.866;2022-08-21T15:54:48;25.10;92.30
25128;DHT22;13107;51.304;6.866;2022-08-21T15:58:52;24.70;93.50
25128;DHT22;13107;51.304;6.866;2022-08-21T16:02:57;24.60;94.00
25128;DHT22;13107;51.304;6.866;2022-08-21T16:07:00;24.50;93.90
25128;DHT22;13107;51.304;6.866;2022-08-21T16:11:14;24.40;92.40
25128;DHT22;13107;51.304;6.866;2022-08-21T16:15:16;24.40;93.50
25128;DHT22;13107;51.304;6.866;2022-08-21T16:19:21;24.20;93.90
25128;DHT22;13107;51.304;6.866;2022-08-21T16:23:23;24.20;93.50
25128;DHT22;13107;51.304;6.866;2022-08-21T16:27:25;24.10;93.60
25128;DHT22;13107;51.304;6.866;2022-08-21T16:31:30;24.10;93.80
25128;DHT22;13107;51.304;6.866;2022-08-21T16:35:32;23.80;93.80
25128;DHT22;13107;51.304;6.866;2022-08-21T16:39:34;23.60;94.30
25128;DHT22;13107;51.304;6.866;2022-08-21T16:43:38;23.60;95.90
25128;DHT22;13107;51.304;6.866;2022-08-21T16:47:41;23.50;95.70
25128;DHT22;13107;51.304;6.866;2022-08-21T16:51:43;23.40;96.60
25128;DHT22;13107;51.304;6.866;2022-08-21T16:55:45;23.40;95.40
25128;DHT22;13107;51.304;6.866;2022-08-21T16:59:47;23.40;96.20
25128;DHT22;13107;51.304;6.866;2022-08-21T17:03:50;23.40;96.00
25128;DHT22;13107;51.304;6.866;2022-08-21T17:07:52;23.30;96.20
25128;DHT22;13107;51.304;6.866;2022-08-21T17:11:54;23.30;95.70
25128;DHT22;13107;51.304;6.866;2022-08-21T17:15:56;23.30;96.50
25128;DHT22;13107;51.304;6.866;2022-08-21T17:19:58;23.20;96.10
25128;DHT22;13107;51.304;6.866;2022-08-21T17:23:59;23.20;95.40
25128;DHT22;13107;51.304;6.866;2022-08-21T17:28:02;23.20;95.90
25128;DHT22;13107;51.304;6.866;2022-08-21T17:32:08;23.10;97.10
25128;DHT22;13107;51.304;6.866;2022-08-21T17:36:10;23.20;94.70
25128;DHT22;13107;51.304;6.866;2022-08-21T17:40:14;23.10;94.80
25128;DHT22;13107;51.304;6.866;2022-08-21T17:44:17;22.90;95.50
25128;DHT22;13107;51.304;6.866;2022-08-21T17:48:20;22.70;95.40
25128;DHT22;13107;51.304;6.866;2022-08-21T17:52:26;22.60;95.70
25128;DHT22;13107;51.304;6.866;2022-08-21T17:56:34;22.40;96.40
25128;DHT22;13107;51.304;6.866;2022-08-21T18:00:36;22.40;97.00
25128;DHT22;13107;51.304;6.866;2022-08-21T18:04:38;22.30;96.60
25128;DHT22;13107;51.304;6.866;2022-08-21T18:08:40;22.00;97.20
25128;DHT22;13107;51.304;6.866;2022-08-21T18:12:43;21.90;98.30
25128;DHT22;13107;51.304;6.866;2022-08-21T18:16:52;21.70;99.20
25128;DHT22;13107;51.304;6.866;2022-08-21T18:20:54;21.40;99.90
25128;DHT22;13107;51.304;6.866;2022-08-21T18:24:56;21.20;99.90
25128;DHT22;13107;51.304;6.866;2022-08-21T18:29:00;20.90;99.90
25128;DHT22;13107;51.304;6.866;2022-08-21T18:33:02;20.70;99.90
25128;DHT22;13107;51.304;6.866;2022-08-21T18:37:04;20.40;99.90
25128;DHT22;13107;51.304;6.866;2022-08-21T18:41:06;20.10;99.90
25128;DHT22;13107;51.304;6.866;2022-08-21T18:45:13;19.90;99.90
25128;DHT22;13107;51.304;6.866;2022-08-21T18:49:15;19.70;99.90
25128;DHT22;13107;51.304;6.866;2022-08-21T18:53:17;19.50;99.90
25128;DHT22;13107;51.304;6.866;2022-08-21T18:57:29;19.20;99.90
25128;DHT22;13107;51.304;6.866;2022-08-21T19:01:31;19.00;99.90
25128;DHT22;13107;51.304;6.866;2022-08-21T19:05:34;18.80;99.90
25128;DHT22;13107;51.304;6.866;2022-08-21T19:09:37;18.70;99.90
25128;DHT22;13107;51.304;6.866;2022-08-21T19:13:39;18.40;99.90
25128;DHT22;13107;51.304;6.866;2022-08-21T19:17:41;18.20;99.90
25128;DHT22;13107;51.304;6.866;2022-08-21T19:21:44;18.10;99.90
25128;DHT22;13107;51.304;6.866;2022-08-21T19:25:52;17.90;99.90
25128;DHT22;13107;51.304;6.866;2022-08-21T19:30:03;17.80;99.90
25128;DHT22;13107;51.304;6.866;2022-08-21T19:34:12;17.60;99.90
25128;DHT22;13107;51.304;6.866;2022-08-21T19:38:16;17.50;99.90
25128;DHT22;13107;51.304;6.866;2022-08-21T19:42:18;17.30;99.90
25128;DHT22;13107;51.304;6.866;2022-08-21T19:46:31;17.20;99.90
25128;DHT22;13107;51.304;6.866;2022-08-21T19:50:35;17.20;99.90
25128;DHT22;13107;51.304;6.866;2022-08-21T19:54:45;17.10;99.90
25128;DHT22;13107;51.304;6.866;2022-08-21T19:58:47;17.00;99.90
25128;DHT22;13107;51.304;6.866;2022-08-21T20:02:51;16.90;99.90
25128;DHT22;13107;51.304;6.866;2022-08-21T20:06:53;16.90;99.90
25128;DHT22;13107;51.304;6.866;2022-08-21T20:10:57;16.80;99.90
25128;DHT22;13107;51.304;6.866;2022-08-21T20:15:05;16.70;99.90
25128;DHT22;13107;51.304;6.866;2022-08-21T20:19:09;16.70;99.90
25128;DHT22;13107;51.304;6.866;2022-08-21T20:23:11;16.70;99.90
25128;DHT22;13107;51.304;6.866;2022-08-21T20:27:19;16.60;99.90
25128;DHT22;13107;51.304;6.866;2022-08-21T20:31:22;16.60;99.90
25128;DHT22;13107;51.304;6.866;2022-08-21T20:35:24;16.60;99.90
25128;DHT22;13107;51.304;6.866;2022-08-21T20:39:26;16.60;99.90
25128;DHT22;13107;51.304;6.866;2022-08-21T20:43:29;16.60;99.90
25128;DHT22;13107;51.304;6.866;2022-08-21T20:47:32;16.60;99.90
25128;DHT22;13107;51.304;6.866;2022-08-21T20:51:38;16.60;99.90
25128;DHT22;13107;51.304;6.866;2022-08-21T20:55:47;16.60;99.90
25128;DHT22;13107;51.304;6.866;2022-08-21T20:59:54;16.50;99.90
25128;DHT22;13107;51.304;6.866;2022-08-21T21:04:05;16.50;99.90
25128;DHT22;13107;51.304;6.866;2022-08-21T21:08:22;16.50;99.90
25128;DHT22;13107;51.304;6.866;2022-08-21T21:12:38;16.50;99.90
25128;DHT22;13107;51.304;6.866;2022-08-21T21:16:48;16.40;99.90
25128;DHT22;13107;51.304;6.866;2022-08-21T21:20:57;16.40;99.90
25128;DHT22;13107;51.304;6.866;2022-08-21T21:29:31;16.40;99.90
25128;DHT22;13107;51.304;6.866;2022-08-21T21:33:37;16.40;99.90
25128;DHT22;13107;51.304;6.866;2022-08-21T21:37:50;16.30;99.90
25128;DHT22;13107;51.304;6.866;2022-08-21T21:54:50;16.20;99.90
25128;DHT22;13107;51.304;6.866;2022-08-21T22:03:44;16.20;99.90
25128;DHT22;13107;51.304;6.866;2022-08-21T22:07:58;16.20;99.90
25128;DHT22;13107;51.304;6.866;2022-08-21T22:16:50;16.10;99.90
25128;DHT22;13107;51.304;6.866;2022-08-21T22:20:53;16.10;99.90
25128;DHT22;13107;51.304;6.866;2022-08-21T22:25:03;16.10;99.90
25128;DHT22;13107;51.304;6.866;2022-08-21T22:29:15;16.10;99.90
25128;DHT22;13107;51.304;6.866;2022-08-21T22:33:21;16.10;99.90
25128;DHT22;13107;51.304;6.866;2022-08-21T22:37:36;16.00;99.90
25128;DHT22;13107;51.304;6.866;2022-08-21T22:41:42;16.00;99.90
25128;DHT22;13107;51.304;6.866;2022-08-21T22:50:04;16.00;99.90
25128;DHT22;13107;51.304;6.866;2022-08-21T22:54:09;16.00;99.90
25128;DHT22;13107;51.304;6.866;2022-08-21T22:58:26;16.00;99.90
25128;DHT22;13107;51.304;6.866;2022-08-21T23:06:53;15.90;99.90
25128;DHT22;13107;51.304;6.866;2022-08-21T23:11:10;15.90;99.90
25128;DHT22;13107;51.304;6.866;2022-08-21T23:15:15;15.90;99.90
25128;DHT22;13107;51.304;6.866;2022-08-21T23:24:17;15.90;99.90
25128;DHT22;13107;51.304;6.866;2022-08-21T23:28:33;15.80;99.90
25128;DHT22;13107;51.304;6.866;2022-08-21T23:42:01;15.60;99.90
25128;DHT22;13107;51.304;6.866;2022-08-21T23:50:48;15.60;99.90
